sensor_id;sensor_type;location;lat;lon;timestamp;temperature;humidity
40660;DHT22;26753;45.544;9.232;2023-04-24T00:02:23;16.60;99.90
40660;DHT22;26753;45.544;9.232;2023-04-24T00:04:49;16.60;99.90
40660;DHT22;26753;45.544;9.232;2023-04-24T00:07:15;16.70;99.90
40660;DHT22;26753;45.544;9.232;2023-04-24T00:09:42;16.70;99.90
40660;DHT22;26753;45.544;9.232;2023-04-24T00:12:08;16.80;99.90
40660;DHT22;26753;45.544;9.232;2023-04-24T00:14:34;16.60;99.90
40660;DHT22;26753;45.544;9.232;2023-04-24T00:17:00;16.50;99.90
40660;DHT22;26753;45.544;9.232;2023-04-24T00:19:27;16.40;99.90
40660;DHT22;26753;45.544;9.232;2023-04-24T00:21:53;16.40;99.90
40660;DHT22;26753;45.544;9.232;2023-04-24T00:24:19;16.40;99.90
40660;DHT22;26753;45.544;9.232;2023-04-24T00:26:45;16.30;99.90
40660;DHT22;26753;45.544;9.232;2023-04-24T00:29:10;16.20;99.90
40660;DHT22;26753;45.544;9.232;2023-04-24T00:31:36;16.30;99.90
40660;DHT22;26753;45.544;9.232;2023-04-24T00:34:05;16.20;99.90
40660;DHT22;26753;45.544;9.232;2023-04-24T00:36:30;16.20;99.90
40660;DHT22;26753;45.544;9.232;2023-04-24T00:38:56;16.10;99.90
40660;DHT22;26753;45.544;9.232;2023-04-24T00:41:22;16.10;99.90
40660;DHT22;26753;45.544;9.232;2023-04-24T00:43:48;16.80;99.90
40660;DHT22;26753;45.544;9.232;2023-04-24T00:46:13;15.90;99.90
40660;DHT22;26753;45.544;9.232;2023-04-24T00:48:39;15.80;99.90
40660;DHT22;26753;45.544;9.232;2023-04-24T00:51:05;15.80;99.90
40660;DHT22;26753;45.544;9.232;2023-04-24T00:53:31;15.70;99.90
40660;DHT22;26753;45.544;9.232;2023-04-24T00:55:57;15.70;99.90
40660;DHT22;26753;45.544;9.232;2023-04-24T00:58:23;15.70;99.90
40660;DHT22;26753;45.544;9.232;2023-04-24T01:00:49;15.80;99.90
40660;DHT22;26753;45.544;9.232;2023-04-24T01:03:20;15.80;99.90
40660;DHT22;26753;45.544;9.232;2023-04-24T01:05:46;15.80;99.90
40660;DHT22;26753;45.544;9.232;2023-04-24T01:08:13;15.70;99.90
40660;DHT22;26753;45.544;9.232;2023-04-24T01:10:38;15.70;99.90
40660;DHT22;26753;45.544;9.232;2023-04-24T01:13:06;15.80;99.90
40660;DHT22;26753;45.544;9.232;2023-04-24T01:15:32;15.70;99.90
40660;DHT22;26753;45.544;9.232;2023-04-24T01:17:58;15.70;99.90
40660;DHT22;26753;45.544;9.232;2023-04-24T01:20:24;15.90;99.90
40660;DHT22;26753;45.544;9.232;2023-04-24T01:22:51;15.90;99.90
40660;DHT22;26753;45.544;9.232;2023-04-24T01:25:18;15.90;99.90
40660;DHT22;26753;45.544;9.232;2023-04-24T01:27:43;15.90;99.90
40660;DHT22;26753;45.544;9.232;2023-04-24T01:30:12;16.00;99.90
40660;DHT22;26753;45.544;9.232;2023-04-24T01:32:37;15.90;99.90
40660;DHT22;26753;45.544;9.232;2023-04-24T01:35:03;15.90;99.90
40660;DHT22;26753;45.544;9.232;2023-04-24T01:37:29;16.00;99.90
40660;DHT22;26753;45.544;9.232;2023-04-24T01:39:55;16.00;99.90
40660;DHT22;26753;45.544;9.232;2023-04-24T01:42:20;16.20;99.90
40660;DHT22;26753;45.544;9.232;2023-04-24T01:44:46;16.20;99.90
40660;DHT22;26753;45.544;9.232;2023-04-24T01:47:12;16.30;99.90
40660;DHT22;26753;45.544;9.232;2023-04-24T01:49:38;16.30;99.90
40660;DHT22;26753;45.544;9.232;2023-04-24T01:52:04;16.40;99.90
40660;DHT22;26753;45.544;9.232;2023-04-24T01:54:30;16.50;99.90
40660;DHT22;26753;45.544;9.232;2023-04-24T01:56:55;16.50;99.90
40660;DHT22;26753;45.544;9.232;2023-04-24T01:59:21;16.40;99.90
40660;DHT22;26753;45.544;9.232;2023-04-24T02:01:48;16.30;99.90
40660;DHT22;26753;45.544;9.232;2023-04-24T02:04:14;16.30;99.90
40660;DHT22;26753;45.544;9.232;2023-04-24T02:06:40;16.10;99.90
40660;DHT22;26753;45.544;9.232;2023-04-24T02:09:06;16.40;99.90
40660;DHT22;26753;45.544;9.232;2023-04-24T02:11:31;15.90;99.90
40660;DHT22;26753;45.544;9.232;2023-04-24T02:13:57;15.90;99.90
40660;DHT22;26753;45.544;9.232;2023-04-24T02:16:22;15.80;99.90
40660;DHT22;26753;45.544;9.232;2023-04-24T02:18:48;15.80;99.90
40660;DHT22;26753;45.544;9.232;2023-04-24T02:21:14;15.60;99.90
40660;DHT22;26753;45.544;9.232;2023-04-24T02:23:39;15.80;99.90
40660;DHT22;26753;45.544;9.232;2023-04-24T02:26:05;15.80;99.90
40660;DHT22;26753;45.544;9.232;2023-04-24T02:28:31;16.00;99.90
40660;DHT22;26753;45.544;9.232;2023-04-24T02:30:56;16.00;99.90
40660;DHT22;26753;45.544;9.232;2023-04-24T02:33:22;16.00;99.90
40660;DHT22;26753;45.544;9.232;2023-04-24T02:35:47;16.10;99.90
40660;DHT22;26753;45.544;9.232;2023-04-24T02:38:13;16.10;99.90
40660;DHT22;26753;45.544;9.232;2023-04-24T02:40:38;16.10;99.90
40660;DHT22;26753;45.544;9.232;2023-04-24T02:43:04;16.10;99.90
40660;DHT22;26753;45.544;9.232;2023-04-24T02:45:29;16.10;99.90
40660;DHT22;26753;45.544;9.232;2023-04-24T02:47:55;16.20;99.90
40660;DHT22;26753;45.544;9.232;2023-04-24T02:50:21;16.10;99.90
40660;DHT22;26753;45.544;9.232;2023-04-24T02:52:46;16.00;99.90
40660;DHT22;26753;45.544;9.232;2023-04-24T02:55:12;15.90;99.90
40660;DHT22;26753;45.544;9.232;2023-04-24T02:57:37;15.80;99.90
40660;DHT22;26753;45.544;9.232;2023-04-24T03:00:03;15.80;99.90
40660;DHT22;26753;45.544;9.232;2023-04-24T03:02:29;15.70;99.90
40660;DHT22;26753;45.544;9.232;2023-04-24T03:04:55;15.60;99.90
40660;DHT22;26753;45.544;9.232;2023-04-24T03:07:20;15.60;99.90
40660;DHT22;26753;45.544;9.232;2023-04-24T03:09:46;15.60;99.90
40660;DHT22;26753;45.544;9.232;2023-04-24T03:12:12;15.60;99.90
40660;DHT22;26753;45.544;9.232;2023-04-24T03:14:37;15.60;99.90
40660;DHT22;26753;45.544;9.232;2023-04-24T03:17:03;15.50;99.90
40660;DHT22;26753;45.544;9.232;2023-04-24T03:19:28;15.50;99.90
40660;DHT22;26753;45.544;9.232;2023-04-24T03:21:54;15.40;99.90
40660;DHT22;26753;45.544;9.232;2023-04-24T03:24:20;15.50;99.90
40660;DHT22;26753;45.544;9.232;2023-04-24T03:26:46;15.40;99.90
40660;DHT22;26753;45.544;9.232;2023-04-24T03:29:11;15.30;99.90
40660;DHT22;26753;45.544;9.232;2023-04-24T03:31:37;15.40;99.90
40660;DHT22;26753;45.544;9.232;2023-04-24T03:34:02;15.30;99.90
40660;DHT22;26753;45.544;9.232;2023-04-24T03:36:28;15.20;99.90
40660;DHT22;26753;45.544;9.232;2023-04-24T03:38:53;15.20;99.90
40660;DHT22;26753;45.544;9.232;2023-04-24T03:41:19;15.20;99.90
40660;DHT22;26753;45.544;9.232;2023-04-24T03:43:44;15.20;99.90
40660;DHT22;26753;45.544;9.232;2023-04-24T03:46:10;15.20;99.90
40660;DHT22;26753;45.544;9.232;2023-04-24T03:48:35;15.20;99.90
40660;DHT22;26753;45.544;9.232;2023-04-24T03:51:01;15.20;99.90
40660;DHT22;26753;45.544;9.232;2023-04-24T03:53:26;15.20;99.90
40660;DHT22;26753;45.544;9.232;2023-04-24T03:55:52;15.10;99.90
40660;DHT22;26753;45.544;9.232;2023-04-24T03:58:18;15.10;99.90
40660;DHT22;26753;45.544;9.232;2023-04-24T04:00:44;15.10;99.90
40660;DHT22;26753;45.544;9.232;2023-04-24T04:03:09;15.10;99.90
40660;DHT22;26753;45.544;9.232;2023-04-24T04:05:35;15.10;99.90
40660;DHT22;26753;45.544;9.232;2023-04-24T04:08:00;15.00;99.90
40660;DHT22;26753;45.544;9.232;2023-04-24T04:10:26;14.90;99.90
40660;DHT22;26753;45.544;9.232;2023-04-24T04:12:51;14.70;99.90
40660;DHT22;26753;45.544;9.232;2023-04-24T04:15:17;15.10;99.90
40660;DHT22;26753;45.544;9.232;2023-04-24T04:17:43;14.60;99.90
40660;DHT22;26753;45.544;9.232;2023-04-24T04:20:08;14.60;99.90
40660;DHT22;26753;45.544;9.232;2023-04-24T04:22:37;14.50;99.90
40660;DHT22;26753;45.544;9.232;2023-04-24T04:25:03;14.50;99.90
40660;DHT22;26753;45.544;9.232;2023-04-24T04:27:28;14.50;99.90
40660;DHT22;26753;45.544;9.232;2023-04-24T04:29:58;14.50;99.90
40660;DHT22;26753;45.544;9.232;2023-04-24T04:32:24;14.50;99.90
40660;DHT22;26753;45.544;9.232;2023-04-24T04:34:50;14.50;99.90
40660;DHT22;26753;45.544;9.232;2023-04-24T04:37:18;14.10;99.90
40660;DHT22;26753;45.544;9.232;2023-04-24T04:39:44;14.50;99.90
40660;DHT22;26753;45.544;9.232;2023-04-24T04:42:09;14.60;99.90
40660;DHT22;26753;45.544;9.232;2023-04-24T04:44:35;14.60;99.90
40660;DHT22;26753;45.544;9.232;2023-04-24T04:47:01;14.50;99.90
40660;DHT22;26753;45.544;9.232;2023-04-24T04:49:31;14.50;99.90
40660;DHT22;26753;45.544;9.232;2023-04-24T04:51:56;14.40;99.90
40660;DHT22;26753;45.544;9.232;2023-04-24T04:54:22;14.50;99.90
40660;DHT22;26753;45.544;9.232;2023-04-24T04:56:51;14.60;99.90
40660;DHT22;26753;45.544;9.232;2023-04-24T04:59:16;14.50;99.90
40660;DHT22;26753;45.544;9.232;2023-04-24T05:01:42;13.50;99.90
40660;DHT22;26753;45.544;9.232;2023-04-24T05:04:08;14.50;99.90
40660;DHT22;26753;45.544;9.232;2023-04-24T05:06:33;14.50;99.90
40660;DHT22;26753;45.544;9.232;2023-04-24T05:08:59;14.50;99.90
40660;DHT22;26753;45.544;9.232;2023-04-24T05:11:45;14.50;99.90
40660;DHT22;26753;45.544;9.232;2023-04-24T05:14:11;14.60;99.90
40660;DHT22;26753;45.544;9.232;2023-04-24T05:16:38;14.50;99.90
40660;DHT22;26753;45.544;9.232;2023-04-24T05:19:04;14.60;99.90
40660;DHT22;26753;45.544;9.232;2023-04-24T05:21:37;14.80;99.90
40660;DHT22;26753;45.544;9.232;2023-04-24T05:24:02;14.60;99.90
40660;DHT22;26753;45.544;9.232;2023-04-24T05:26:28;14.40;99.90
40660;DHT22;26753;45.544;9.232;2023-04-24T05:28:54;14.70;99.90
40660;DHT22;26753;45.544;9.232;2023-04-24T05:31:19;14.50;99.90
40660;DHT22;26753;45.544;9.232;2023-04-24T05:33:45;14.60;99.90
40660;DHT22;26753;45.544;9.232;2023-04-24T05:36:13;14.60;99.90
40660;DHT22;26753;45.544;9.232;2023-04-24T05:38:39;14.60;99.90
40660;DHT22;26753;45.544;9.232;2023-04-24T05:41:04;14.60;99.90
40660;DHT22;26753;45.544;9.232;2023-04-24T05:43:30;14.80;99.90
40660;DHT22;26753;45.544;9.232;2023-04-24T05:45:58;14.70;99.90
40660;DHT22;26753;45.544;9.232;2023-04-24T05:48:24;14.80;99.90
40660;DHT22;26753;45.544;9.232;2023-04-24T05:50:51;14.80;99.90
40660;DHT22;26753;45.544;9.232;2023-04-24T05:53:18;14.90;99.90
40660;DHT22;26753;45.544;9.232;2023-04-24T05:55:46;15.00;99.90
40660;DHT22;26753;45.544;9.232;2023-04-24T05:58:12;15.00;99.90
40660;DHT22;26753;45.544;9.232;2023-04-24T06:00:41;15.00;99.90
40660;DHT22;26753;45.544;9.232;2023-04-24T06:03:08;15.20;99.90
40660;DHT22;26753;45.544;9.232;2023-04-24T06:05:34;15.20;99.90
40660;DHT22;26753;45.544;9.232;2023-04-24T06:08:03;15.30;99.90
40660;DHT22;26753;45.544;9.232;2023-04-24T06:10:29;15.40;99.90
40660;DHT22;26753;45.544;9.232;2023-04-24T06:12:57;15.50;99.90
40660;DHT22;26753;45.544;9.232;2023-04-24T06:15:27;15.70;99.90
40660;DHT22;26753;45.544;9.232;2023-04-24T06:20:52;15.90;99.90
40660;DHT22;26753;45.544;9.232;2023-04-24T06:23:18;15.90;99.90
40660;DHT22;26753;45.544;9.232;2023-04-24T06:25:43;16.00;99.90
40660;DHT22;26753;45.544;9.232;2023-04-24T06:28:09;16.20;99.90
40660;DHT22;26753;45.544;9.232;2023-04-24T06:30:35;16.20;99.90
40660;DHT22;26753;45.544;9.232;2023-04-24T06:33:00;16.30;99.90
40660;DHT22;26753;45.544;9.232;2023-04-24T06:35:29;16.50;99.90
40660;DHT22;26753;45.544;9.232;2023-04-24T06:38:47;16.60;99.90
40660;DHT22;26753;45.544;9.232;2023-04-24T06:40:47;16.70;99.90
40660;DHT22;26753;45.544;9.232;2023-04-24T06:43:31;16.80;99.90
40660;DHT22;26753;45.544;9.232;2023-04-24T06:46:06;16.90;99.90
40660;DHT22;26753;45.544;9.232;2023-04-24T06:48:43;16.90;99.90
40660;DHT22;26753;45.544;9.232;2023-04-24T06:51:30;16.90;99.90
40660;DHT22;26753;45.544;9.232;2023-04-24T06:56:50;17.30;99.90
40660;DHT22;26753;45.544;9.232;2023-04-24T06:59:36;17.30;99.90
40660;DHT22;26753;45.544;9.232;2023-04-24T07:02:04;17.60;99.90
40660;DHT22;26753;45.544;9.232;2023-04-24T07:04:50;17.60;99.90
40660;DHT22;26753;45.544;9.232;2023-04-24T07:07:26;17.60;99.90
40660;DHT22;26753;45.544;9.232;2023-04-24T07:09:54;17.70;99.90
40660;DHT22;26753;45.544;9.232;2023-04-24T07:12:21;17.70;99.90
40660;DHT22;26753;45.544;9.232;2023-04-24T07:14:47;17.70;99.90
40660;DHT22;26753;45.544;9.232;2023-04-24T07:17:16;17.60;99.90
40660;DHT22;26753;45.544;9.232;2023-04-24T07:19:45;17.80;99.90
40660;DHT22;26753;45.544;9.232;2023-04-24T07:22:10;17.80;99.90
40660;DHT22;26753;45.544;9.232;2023-04-24T07:24:47;17.90;99.90
40660;DHT22;26753;45.544;9.232;2023-04-24T07:27:16;18.00;99.90
40660;DHT22;26753;45.544;9.232;2023-04-24T07:36:21;18.10;99.90
40660;DHT22;26753;45.544;9.232;2023-04-24T07:38:47;18.10;99.90
40660;DHT22;26753;45.544;9.232;2023-04-24T07:41:13;18.20;99.90
40660;DHT22;26753;45.544;9.232;2023-04-24T07:43:40;18.20;99.90
40660;DHT22;26753;45.544;9.232;2023-04-24T07:49:04;18.20;99.90
40660;DHT22;26753;45.544;9.232;2023-04-24T07:51:30;18.40;99.90
40660;DHT22;26753;45.544;9.232;2023-04-24T07:53:57;18.30;99.90
40660;DHT22;26753;45.544;9.232;2023-04-24T07:56:23;18.40;99.90
40660;DHT22;26753;45.544;9.232;2023-04-24T07:58:56;18.40;99.90
40660;DHT22;26753;45.544;9.232;2023-04-24T08:01:22;18.40;99.90
40660;DHT22;26753;45.544;9.232;2023-04-24T08:03:48;18.40;99.90
40660;DHT22;26753;45.544;9.232;2023-04-24T08:06:14;18.40;99.90
40660;DHT22;26753;45.544;9.232;2023-04-24T08:08:42;18.50;99.90
40660;DHT22;26753;45.544;9.232;2023-04-24T08:11:11;18.50;99.90
40660;DHT22;26753;45.544;9.232;2023-04-24T08:13:39;18.50;99.90
40660;DHT22;26753;45.544;9.232;2023-04-24T08:16:08;18.50;99.90
40660;DHT22;26753;45.544;9.232;2023-04-24T08:18:45;18.60;99.90
40660;DHT22;26753;45.544;9.232;2023-04-24T08:24:29;18.70;99.90
40660;DHT22;26753;45.544;9.232;2023-04-24T08:26:58;18.90;99.90
40660;DHT22;26753;45.544;9.232;2023-04-24T08:29:26;18.90;99.90
40660;DHT22;26753;45.544;9.232;2023-04-24T08:31:55;18.90;99.90
40660;DHT22;26753;45.544;9.232;2023-04-24T08:37:32;18.90;99.90
40660;DHT22;26753;45.544;9.232;2023-04-24T08:40:00;18.90;99.90
40660;DHT22;26753;45.544;9.232;2023-04-24T08:42:26;18.90;99.90
40660;DHT22;26753;45.544;9.232;2023-04-24T08:44:53;19.00;99.90
40660;DHT22;26753;45.544;9.232;2023-04-24T08:47:20;19.10;99.90
40660;DHT22;26753;45.544;9.232;2023-04-24T08:49:46;19.20;99.90
40660;DHT22;26753;45.544;9.232;2023-04-24T08:52:13;19.40;99.90
40660;DHT22;26753;45.544;9.232;2023-04-24T08:54:45;19.40;99.90
40660;DHT22;26753;45.544;9.232;2023-04-24T08:57:14;19.50;99.90
40660;DHT22;26753;45.544;9.232;2023-04-24T08:59:43;19.50;99.90
40660;DHT22;26753;45.544;9.232;2023-04-24T09:02:10;19.40;99.90
40660;DHT22;26753;45.544;9.232;2023-04-24T09:04:37;19.50;99.90
40660;DHT22;26753;45.544;9.232;2023-04-24T09:07:09;19.50;99.90
40660;DHT22;26753;45.544;9.232;2023-04-24T09:09:36;19.30;99.90
40660;DHT22;26753;45.544;9.232;2023-04-24T09:12:03;19.40;99.90
40660;DHT22;26753;45.544;9.232;2023-04-24T09:14:32;19.50;99.90
40660;DHT22;26753;45.544;9.232;2023-04-24T09:16:58;19.50;99.90
40660;DHT22;26753;45.544;9.232;2023-04-24T09:19:24;19.60;99.90
40660;DHT22;26753;45.544;9.232;2023-04-24T09:22:28;19.60;99.90
40660;DHT22;26753;45.544;9.232;2023-04-24T09:25:04;19.50;99.90
40660;DHT22;26753;45.544;9.232;2023-04-24T09:27:34;19.50;99.90
40660;DHT22;26753;45.544;9.232;2023-04-24T09:30:00;19.60;99.90
40660;DHT22;26753;45.544;9.232;2023-04-24T09:32:31;19.60;99.90
40660;DHT22;26753;45.544;9.232;2023-04-24T09:35:13;19.70;99.90
40660;DHT22;26753;45.544;9.232;2023-04-24T09:37:42;19.90;99.90
40660;DHT22;26753;45.544;9.232;2023-04-24T09:40:08;20.00;99.90
40660;DHT22;26753;45.544;9.232;2023-04-24T09:42:35;20.10;99.90
40660;DHT22;26753;45.544;9.232;2023-04-24T09:45:01;20.20;99.90
40660;DHT22;26753;45.544;9.232;2023-04-24T09:47:27;20.30;99.90
40660;DHT22;26753;45.544;9.232;2023-04-24T09:49:57;20.20;99.90
40660;DHT22;26753;45.544;9.232;2023-04-24T09:52:23;20.20;99.90
40660;DHT22;26753;45.544;9.232;2023-04-24T09:54:53;20.30;99.90
40660;DHT22;26753;45.544;9.232;2023-04-24T09:57:22;20.40;99.90
40660;DHT22;26753;45.544;9.232;2023-04-24T09:59:50;20.50;99.90
40660;DHT22;26753;45.544;9.232;2023-04-24T10:02:18;20.30;99.90
40660;DHT22;26753;45.544;9.232;2023-04-24T10:04:54;20.40;99.90
40660;DHT22;26753;45.544;9.232;2023-04-24T10:07:21;20.40;99.90
40660;DHT22;26753;45.544;9.232;2023-04-24T10:09:57;20.50;99.90
40660;DHT22;26753;45.544;9.232;2023-04-24T10:12:23;20.70;99.90
40660;DHT22;26753;45.544;9.232;2023-04-24T10:14:58;20.80;99.90
40660;DHT22;26753;45.544;9.232;2023-04-24T10:17:30;21.00;99.90
40660;DHT22;26753;45.544;9.232;2023-04-24T10:19:55;21.30;99.90
40660;DHT22;26753;45.544;9.232;2023-04-24T10:22:22;21.40;99.90
40660;DHT22;26753;45.544;9.232;2023-04-24T10:24:48;21.30;99.90
40660;DHT22;26753;45.544;9.232;2023-04-24T10:27:17;21.40;99.90
40660;DHT22;26753;45.544;9.232;2023-04-24T10:29:46;21.60;99.90
40660;DHT22;26753;45.544;9.232;2023-04-24T10:32:14;21.30;99.90
40660;DHT22;26753;45.544;9.232;2023-04-24T10:34:40;21.40;99.90
40660;DHT22;26753;45.544;9.232;2023-04-24T10:37:06;21.50;99.90
40660;DHT22;26753;45.544;9.232;2023-04-24T10:39:31;21.60;99.90
40660;DHT22;26753;45.544;9.232;2023-04-24T10:41:58;21.60;99.90
40660;DHT22;26753;45.544;9.232;2023-04-24T10:44:24;21.60;99.90
40660;DHT22;26753;45.544;9.232;2023-04-24T10:46:53;21.70;99.90
40660;DHT22;26753;45.544;9.232;2023-04-24T10:49:28;21.80;99.90
40660;DHT22;26753;45.544;9.232;2023-04-24T10:52:00;22.00;99.90
40660;DHT22;26753;45.544;9.232;2023-04-24T10:54:34;21.90;99.90
40660;DHT22;26753;45.544;9.232;2023-04-24T11:00:33;22.10;99.90
40660;DHT22;26753;45.544;9.232;2023-04-24T11:02:37;22.40;99.90
40660;DHT22;26753;45.544;9.232;2023-04-24T11:05:03;22.40;99.90
40660;DHT22;26753;45.544;9.232;2023-04-24T11:07:29;22.40;99.90
40660;DHT22;26753;45.544;9.232;2023-04-24T11:09:58;22.50;99.90
40660;DHT22;26753;45.544;9.232;2023-04-24T11:12:42;22.70;99.90
40660;DHT22;26753;45.544;9.232;2023-04-24T11:15:11;22.90;99.90
40660;DHT22;26753;45.544;9.232;2023-04-24T11:17:38;23.20;99.90
40660;DHT22;26753;45.544;9.232;2023-04-24T11:20:09;23.10;99.90
40660;DHT22;26753;45.544;9.232;2023-04-24T11:22:36;23.20;99.80
40660;DHT22;26753;45.544;9.232;2023-04-24T11:25:08;23.40;99.90
40660;DHT22;26753;45.544;9.232;2023-04-24T11:27:41;23.50;99.40
40660;DHT22;26753;45.544;9.232;2023-04-24T11:30:07;23.60;99.20
40660;DHT22;26753;45.544;9.232;2023-04-24T11:32:37;23.80;99.20
40660;DHT22;26753;45.544;9.232;2023-04-24T11:35:08;23.90;99.10
40660;DHT22;26753;45.544;9.232;2023-04-24T11:37:38;24.10;98.80
40660;DHT22;26753;45.544;9.232;2023-04-24T11:40:05;24.20;98.50
40660;DHT22;26753;45.544;9.232;2023-04-24T11:42:41;24.10;97.80
40660;DHT22;26753;45.544;9.232;2023-04-24T11:45:14;24.30;96.50
40660;DHT22;26753;45.544;9.232;2023-04-24T11:48:04;24.40;95.60
40660;DHT22;26753;45.544;9.232;2023-04-24T11:50:33;24.50;93.50
40660;DHT22;26753;45.544;9.232;2023-04-24T11:53:01;24.60;92.80
40660;DHT22;26753;45.544;9.232;2023-04-24T11:55:27;24.50;92.70
40660;DHT22;26753;45.544;9.232;2023-04-24T11:57:54;24.70;92.60
40660;DHT22;26753;45.544;9.232;2023-04-24T12:00:42;24.90;93.40
40660;DHT22;26753;45.544;9.232;2023-04-24T12:03:13;25.10;92.30
40660;DHT22;26753;45.544;9.232;2023-04-24T12:05:45;25.20;92.40
40660;DHT22;26753;45.544;9.232;2023-04-24T12:08:11;25.30;92.00
40660;DHT22;26753;45.544;9.232;2023-04-24T12:10:36;25.60;91.20
40660;DHT22;26753;45.544;9.232;2023-04-24T12:13:05;25.60;90.50
40660;DHT22;26753;45.544;9.232;2023-04-24T12:15:39;25.90;90.30
40660;DHT22;26753;45.544;9.232;2023-04-24T12:18:05;26.20;90.20
40660;DHT22;26753;45.544;9.232;2023-04-24T12:20:31;26.10;87.70
40660;DHT22;26753;45.544;9.232;2023-04-24T12:22:58;25.90;89.50
40660;DHT22;26753;45.544;9.232;2023-04-24T12:25:29;25.90;89.30
40660;DHT22;26753;45.544;9.232;2023-04-24T12:28:08;26.30;89.20
40660;DHT22;26753;45.544;9.232;2023-04-24T12:30:49;26.30;82.90
40660;DHT22;26753;45.544;9.232;2023-04-24T12:33:20;26.50;80.10
40660;DHT22;26753;45.544;9.232;2023-04-24T12:35:47;26.40;81.90
40660;DHT22;26753;45.544;9.232;2023-04-24T12:38:13;26.50;82.60
40660;DHT22;26753;45.544;9.232;2023-04-24T12:41:24;26.90;83.30
40660;DHT22;26753;45.544;9.232;2023-04-24T12:43:25;27.20;84.90
40660;DHT22;26753;45.544;9.232;2023-04-24T12:45:52;27.30;84.50
40660;DHT22;26753;45.544;9.232;2023-04-24T12:48:17;27.30;83.20
40660;DHT22;26753;45.544;9.232;2023-04-24T12:50:43;27.40;81.60
40660;DHT22;26753;45.544;9.232;2023-04-24T12:53:09;27.20;80.20
40660;DHT22;26753;45.544;9.232;2023-04-24T12:55:35;27.70;79.80
40660;DHT22;26753;45.544;9.232;2023-04-24T12:58:01;28.00;77.90
40660;DHT22;26753;45.544;9.232;2023-04-24T13:00:28;28.00;78.40
40660;DHT22;26753;45.544;9.232;2023-04-24T13:02:53;28.10;79.20
40660;DHT22;26753;45.544;9.232;2023-04-24T13:05:19;28.30;79.40
40660;DHT22;26753;45.544;9.232;2023-04-24T13:07:45;28.30;78.50
40660;DHT22;26753;45.544;9.232;2023-04-24T13:10:11;28.20;77.40
40660;DHT22;26753;45.544;9.232;2023-04-24T13:12:38;28.40;77.50
40660;DHT22;26753;45.544;9.232;2023-04-24T13:15:04;29.70;76.90
40660;DHT22;26753;45.544;9.232;2023-04-24T13:17:30;32.40;73.70
40660;DHT22;26753;45.544;9.232;2023-04-24T13:19:56;35.50;65.50
40660;DHT22;26753;45.544;9.232;2023-04-24T13:22:22;38.40;62.30
40660;DHT22;26753;45.544;9.232;2023-04-24T13:24:47;40.80;56.80
40660;DHT22;26753;45.544;9.232;2023-04-24T13:27:16;41.80;52.40
40660;DHT22;26753;45.544;9.232;2023-04-24T13:29:42;42.00;50.40
40660;DHT22;26753;45.544;9.232;2023-04-24T13:32:08;41.20;49.90
40660;DHT22;26753;45.544;9.232;2023-04-24T13:35:00;41.30;48.70
40660;DHT22;26753;45.544;9.232;2023-04-24T13:37:37;42.30;48.00
40660;DHT22;26753;45.544;9.232;2023-04-24T13:40:03;42.90;46.20
40660;DHT22;26753;45.544;9.232;2023-04-24T13:42:31;42.60;44.20
40660;DHT22;26753;45.544;9.232;2023-04-24T13:44:57;43.30;44.30
40660;DHT22;26753;45.544;9.232;2023-04-24T13:47:26;44.30;42.70
40660;DHT22;26753;45.544;9.232;2023-04-24T13:49:51;45.40;42.30
40660;DHT22;26753;45.544;9.232;2023-04-24T13:52:19;46.10;41.50
40660;DHT22;26753;45.544;9.232;2023-04-24T13:54:45;45.20;39.00
40660;DHT22;26753;45.544;9.232;2023-04-24T13:57:13;45.50;39.60
40660;DHT22;26753;45.544;9.232;2023-04-24T13:59:45;44.90;39.40
40660;DHT22;26753;45.544;9.232;2023-04-24T14:02:16;45.50;39.40
40660;DHT22;26753;45.544;9.232;2023-04-24T14:04:42;45.30;38.70
40660;DHT22;26753;45.544;9.232;2023-04-24T14:07:13;46.80;38.50
40660;DHT22;26753;45.544;9.232;2023-04-24T14:09:41;47.50;38.20
40660;DHT22;26753;45.544;9.232;2023-04-24T14:12:07;47.60;36.80
40660;DHT22;26753;45.544;9.232;2023-04-24T14:14:33;47.70;36.20
40660;DHT22;26753;45.544;9.232;2023-04-24T14:16:59;47.10;36.00
40660;DHT22;26753;45.544;9.232;2023-04-24T14:19:27;48.00;37.50
40660;DHT22;26753;45.544;9.232;2023-04-24T14:21:52;48.50;36.60
40660;DHT22;26753;45.544;9.232;2023-04-24T14:24:20;48.70;35.30
40660;DHT22;26753;45.544;9.232;2023-04-24T14:26:47;49.00;35.90
40660;DHT22;26753;45.544;9.232;2023-04-24T14:29:17;49.20;35.20
40660;DHT22;26753;45.544;9.232;2023-04-24T14:31:42;49.20;34.90
40660;DHT22;26753;45.544;9.232;2023-04-24T14:34:08;48.00;35.30
40660;DHT22;26753;45.544;9.232;2023-04-24T14:36:34;45.40;33.60
40660;DHT22;26753;45.544;9.232;2023-04-24T14:39:00;45.50;34.80
40660;DHT22;26753;45.544;9.232;2023-04-24T14:41:30;47.50;35.80
40660;DHT22;26753;45.544;9.232;2023-04-24T14:43:56;49.20;35.30
40660;DHT22;26753;45.544;9.232;2023-04-24T14:46:22;50.10;34.80
40660;DHT22;26753;45.544;9.232;2023-04-24T14:48:47;48.00;33.80
40660;DHT22;26753;45.544;9.232;2023-04-24T14:51:13;47.80;33.90
40660;DHT22;26753;45.544;9.232;2023-04-24T14:53:39;48.10;34.40
40660;DHT22;26753;45.544;9.232;2023-04-24T14:56:04;47.80;34.00
40660;DHT22;26753;45.544;9.232;2023-04-24T14:58:33;46.30;33.50
40660;DHT22;26753;45.544;9.232;2023-04-24T15:00:59;49.00;34.80
40660;DHT22;26753;45.544;9.232;2023-04-24T15:03:25;50.90;34.70
40660;DHT22;26753;45.544;9.232;2023-04-24T15:05:52;51.20;32.80
40660;DHT22;26753;45.544;9.232;2023-04-24T15:08:17;49.40;33.00
40660;DHT22;26753;45.544;9.232;2023-04-24T15:10:43;47.70;32.90
40660;DHT22;26753;45.544;9.232;2023-04-24T15:13:09;47.70;33.50
40660;DHT22;26753;45.544;9.232;2023-04-24T15:15:35;47.10;33.00
40660;DHT22;26753;45.544;9.232;2023-04-24T15:18:07;46.50;33.00
40660;DHT22;26753;45.544;9.232;2023-04-24T15:20:33;46.40;33.70
40660;DHT22;26753;45.544;9.232;2023-04-24T15:22:59;48.00;33.60
40660;DHT22;26753;45.544;9.232;2023-04-24T15:25:28;49.00;33.50
40660;DHT22;26753;45.544;9.232;2023-04-24T15:27:54;49.60;34.00
40660;DHT22;26753;45.544;9.232;2023-04-24T15:30:19;50.00;33.30
40660;DHT22;26753;45.544;9.232;2023-04-24T15:32:45;49.60;32.50
40660;DHT22;26753;45.544;9.232;2023-04-24T15:35:10;49.10;32.90
40660;DHT22;26753;45.544;9.232;2023-04-24T15:37:37;49.00;33.00
40660;DHT22;26753;45.544;9.232;2023-04-24T15:40:07;47.70;32.90
40660;DHT22;26753;45.544;9.232;2023-04-24T15:42:33;48.20;33.00
40660;DHT22;26753;45.544;9.232;2023-04-24T15:44:59;48.10;33.00
40660;DHT22;26753;45.544;9.232;2023-04-24T15:47:25;48.60;32.90
40660;DHT22;26753;45.544;9.232;2023-04-24T15:49:51;47.50;32.60
40660;DHT22;26753;45.544;9.232;2023-04-24T15:52:17;44.70;32.60
40660;DHT22;26753;45.544;9.232;2023-04-24T15:54:45;42.50;33.30
40660;DHT22;26753;45.544;9.232;2023-04-24T15:57:14;39.10;34.10
40660;DHT22;26753;45.544;9.232;2023-04-24T15:59:40;36.20;35.30